Time;durP1;ratioP1;P1;durP2;ratioP2;P2;SDS_P1;SDS_P2;PMS_P1;PMS_P2;Temp;Humidity;BMP_temperature;BMP_pressure;BME280_temperature;BME280_humidity;BME280_pressure;Samples;Min_cycle;Max_cycle;Signal;HPM_P1;HPM_P2
2021/07/05 00:00:46;;;;;;;9.87;7.90;;;;;;;16.46;100.00;100319.66;5077013;28;20174;-69
2021/07/05 00:03:12;;;;;;;13.97;7.10;;;;;;;16.46;99.88;100322.38;5095575;28;20670;-71
2021/07/05 00:05:37;;;;;;;9.83;7.47;;;;;;;16.46;99.71;100325.91;5060221;28;20197;-70
2021/07/05 00:08:02;;;;;;;14.77;7.77;;;;;;;16.45;100.00;100318.81;5094870;28;20190;-71
2021/07/05 00:10:28;;;;;;;9.03;7.50;;;;;;;16.44;100.00;100325.19;5076917;28;20178;-70
2021/07/05 00:12:55;;;;;;;10.33;7.43;;;;;;;16.48;100.00;100328.47;5076795;28;20177;-70
2021/07/05 00:15:26;;;;;;;10.80;7.33;;;;;;;16.47;99.97;100322.25;5076873;28;20192;-71
2021/07/05 00:17:55;;;;;;;7.20;6.50;;;;;;;16.59;99.80;100333.78;5077306;28;20163;-71
2021/07/05 00:20:20;;;;;;;9.27;7.73;;;;;;;16.48;99.98;100328.47;5076656;28;20197;-70
2021/07/05 00:22:46;;;;;;;7.40;6.70;;;;;;;16.44;100.00;100327.03;5076619;28;20177;-70
2021/07/05 00:25:11;;;;;;;9.10;7.63;;;;;;;16.38;100.00;100327.56;5076486;28;20217;-71
2021/07/05 00:27:37;;;;;;;9.20;7.50;;;;;;;16.27;100.00;100329.31;5076414;28;20186;-71
2021/07/05 00:30:04;;;;;;;8.37;7.37;;;;;;;16.19;100.00;100330.94;5076526;28;20179;-71
2021/07/05 00:32:29;;;;;;;8.40;7.50;;;;;;;16.21;100.00;100328.97;5076384;28;20189;-71
2021/07/05 00:34:54;;;;;;;10.00;7.80;;;;;;;16.14;100.00;100325.94;5094521;28;20547;-70
2021/07/05 00:37:20;;;;;;;9.70;7.20;;;;;;;16.06;100.00;100324.88;5076318;28;20185;-70
2021/07/05 00:39:45;;;;;;;9.83;8.03;;;;;;;16.06;100.00;100322.19;5094370;28;20174;-71
2021/07/05 00:42:10;;;;;;;9.13;7.50;;;;;;;16.08;100.00;100320.22;5094419;28;20165;-70
2021/07/05 00:44:37;;;;;;;8.60;7.70;;;;;;;16.02;100.00;100324.28;5076428;28;20201;-71
2021/07/05 00:47:02;;;;;;;9.77;8.43;;;;;;;16.09;100.00;100316.56;5094402;28;20599;-71
2021/07/05 00:49:28;;;;;;;10.00;8.57;;;;;;;16.10;100.00;100310.19;5076215;28;20178;-70
2021/07/05 00:51:53;;;;;;;13.53;8.97;;;;;;;16.12;100.00;100302.81;5094377;28;20534;-69
2021/07/05 00:54:18;;;;;;;16.17;9.57;;;;;;;16.13;100.00;100302.69;5075958;28;20527;-70
2021/07/05 00:56:44;;;;;;;12.73;9.33;;;;;;;16.17;100.00;100303.28;5076234;28;20166;-70
2021/07/05 00:59:10;;;;;;;12.20;9.50;;;;;;;16.11;100.00;100293.91;5075877;28;20253;-70
2021/07/05 01:01:35;;;;;;;11.77;8.87;;;;;;;16.11;100.00;100293.03;5075927;28;20178;-70
2021/07/05 01:04:00;;;;;;;11.67;9.20;;;;;;;16.04;100.00;100294.56;5075674;28;20178;-70
2021/07/05 01:06:26;;;;;;;11.90;9.57;;;;;;;16.02;100.00;100292.00;5076119;28;20171;-70
2021/07/05 01:08:52;;;;;;;10.17;9.17;;;;;;;16.03;100.00;100298.22;5075964;28;20178;-69
2021/07/05 01:11:19;;;;;;;13.07;9.03;;;;;;;15.98;100.00;100312.03;5094362;28;20581;-70
2021/07/05 01:13:45;;;;;;;12.37;8.97;;;;;;;15.97;100.00;100304.09;5076284;28;20188;-70
2021/07/05 01:16:10;;;;;;;17.10;9.73;;;;;;;15.95;100.00;100293.47;5093803;28;20562;-70
2021/07/05 01:18:35;;;;;;;12.33;9.93;;;;;;;16.00;100.00;100293.09;5075957;28;20170;-70
2021/07/05 01:21:01;;;;;;;14.07;10.13;;;;;;;15.99;100.00;100288.72;5093885;28;20178;-70
2021/07/05 01:23:27;;;;;;;14.07;9.83;;;;;;;15.96;100.00;100279.03;5075848;28;20223;-69
2021/07/05 01:25:52;;;;;;;13.13;10.30;;;;;;;16.00;100.00;100285.03;5075216;28;20198;-71
2021/07/05 01:28:18;;;;;;;14.70;9.50;;;;;;;16.04;100.00;100286.47;5075608;28;20328;-71
2021/07/05 01:30:43;;;;;;;15.97;9.97;;;;;;;16.03;100.00;100284.78;5093942;28;20182;-70
2021/07/05 01:33:09;;;;;;;14.63;9.60;;;;;;;16.02;100.00;100285.75;5075191;28;20519;-70
2021/07/05 01:35:34;;;;;;;12.80;10.13;;;;;;;16.03;100.00;100282.06;5075141;28;20693;-70
2021/07/05 01:38:00;;;;;;;18.80;10.33;;;;;;;16.02;100.00;100283.91;5075760;28;20174;-70
2021/07/05 01:40:26;;;;;;;13.87;9.17;;;;;;;16.01;100.00;100281.34;5075298;28;20170;-71
2021/07/05 01:42:55;;;;;;;11.47;9.97;;;;;;;16.04;100.00;100281.94;5075375;28;20171;-69
2021/07/05 01:45:26;;;;;;;15.27;9.77;;;;;;;16.10;100.00;100272.50;5093090;28;20296;-70
2021/07/05 01:47:51;;;;;;;14.70;9.30;;;;;;;16.13;100.00;100274.91;5058445;28;20247;-70
2021/07/05 01:50:17;;;;;;;9.47;7.90;;;;;;;16.11;100.00;100271.50;5075368;28;20198;-70
2021/07/05 01:52:43;;;;;;;11.33;7.67;;;;;;;16.05;100.00;100267.50;5093207;28;20196;-70
2021/07/05 01:55:09;;;;;;;13.37;8.77;;;;;;;16.02;100.00;100272.28;5058155;28;20205;-70
2021/07/05 01:57:35;;;;;;;12.90;9.73;;;;;;;15.86;100.00;100262.81;5075018;28;20564;-71
2021/07/05 02:00:09;;;;;;;12.67;8.57;;;;;;;15.81;100.00;100254.25;5075209;28;20661;-70
2021/07/05 02:02:34;;;;;;;14.20;8.57;;;;;;;15.88;100.00;100258.16;5075075;28;20170;-69
2021/07/05 02:04:59;;;;;;;13.00;9.37;;;;;;;15.97;100.00;100263.72;5075097;28;20570;-71
2021/07/05 02:07:25;;;;;;;17.57;10.17;;;;;;;16.01;100.00;100259.81;5093224;28;20205;-71
2021/07/05 02:09:50;;;;;;;14.70;9.67;;;;;;;16.02;100.00;100262.38;5074952;28;20219;-70
2021/07/05 02:12:16;;;;;;;14.13;9.50;;;;;;;16.03;100.00;100263.22;5075110;28;20204;-71
2021/07/05 02:14:41;;;;;;;14.30;10.73;;;;;;;16.02;100.00;100261.53;5075181;28;20656;-71
2021/07/05 02:17:09;;;;;;;11.77;10.00;;;;;;;15.99;100.00;100259.09;5074849;28;20166;-71
2021/07/05 02:19:35;;;;;;;17.60;10.73;;;;;;;15.93;100.00;100264.00;5075368;28;20174;-71
2021/07/05 02:22:01;;;;;;;14.97;10.23;;;;;;;15.93;100.00;100261.28;5074856;28;20174;-71
2021/07/05 02:24:27;;;;;;;15.63;11.03;;;;;;;15.94;100.00;100257.63;5058218;28;20226;-72
2021/07/05 02:26:53;;;;;;;19.43;11.53;;;;;;;15.96;100.00;100260.19;5092682;28;20206;-71
2021/07/05 02:29:18;;;;;;;18.73;10.67;;;;;;;15.91;100.00;100254.34;5093249;28;20178;-71
2021/07/05 02:31:44;;;;;;;14.37;10.80;;;;;;;15.97;100.00;100259.19;5074618;28;20519;-71
2021/07/05 02:34:10;;;;;;;16.07;11.10;;;;;;;16.00;100.00;100258.13;5074591;28;20174;-71
2021/07/05 02:36:35;;;;;;;16.07;10.97;;;;;;;16.03;100.00;100261.41;5074582;28;20183;-71
2021/07/05 02:39:00;;;;;;;11.10;9.70;;;;;;;16.08;100.00;100255.63;5057781;28;20483;-71
2021/07/05 02:41:26;;;;;;;14.53;10.10;;;;;;;16.17;100.00;100257.53;5074564;28;20201;-71
2021/07/05 02:43:51;;;;;;;18.67;11.20;;;;;;;16.18;100.00;100257.38;5075452;28;20201;-71
2021/07/05 02:46:16;;;;;;;15.93;10.53;;;;;;;16.31;100.00;100261.72;5078311;28;20562;-71
2021/07/05 02:48:42;;;;;;;12.43;9.50;;;;;;;16.20;100.00;100259.94;5078634;28;20194;-71
2021/07/05 02:51:09;;;;;;;19.20;10.10;;;;;;;16.23;100.00;100259.69;5078222;28;20178;-71
2021/07/05 02:53:35;;;;;;;14.20;9.87;;;;;;;16.30;100.00;100251.94;5078301;28;20644;-73
2021/07/05 02:56:00;;;;;;;13.63;9.97;;;;;;;16.18;100.00;100252.00;5061520;28;20201;-71
2021/07/05 02:58:26;;;;;;;16.83;9.83;;;;;;;16.20;100.00;100257.25;5096317;28;20661;-71
2021/07/05 03:00:54;;;;;;;11.53;8.47;;;;;;;16.05;100.00;100274.72;5078090;28;20660;-71
2021/07/05 03:03:20;;;;;;;11.23;9.30;;;;;;;16.00;100.00;100271.56;5061436;28;20174;-71
2021/07/05 03:05:45;;;;;;;16.20;9.17;;;;;;;16.03;100.00;100279.38;5078033;28;20202;-71
2021/07/05 03:08:10;;;;;;;9.40;7.70;;;;;;;16.03;100.00;100264.09;5096174;28;20585;-71
2021/07/05 03:10:37;;;;;;;11.17;8.87;;;;;;;16.01;100.00;100267.91;5096102;28;20170;-71
2021/07/05 03:13:04;;;;;;;16.03;9.57;;;;;;;15.97;100.00;100269.09;5077927;28;20178;-71
2021/07/05 03:15:30;;;;;;;15.50;8.43;;;;;;;16.00;100.00;100269.72;5061045;28;20701;-72
2021/07/05 03:17:55;;;;;;;10.03;8.33;;;;;;;16.06;100.00;100263.81;5077811;28;20178;-71
2021/07/05 03:20:23;;;;;;;12.33;9.07;;;;;;;16.11;100.00;100266.13;5078370;28;20170;-71
2021/07/05 03:22:49;;;;;;;14.03;9.00;;;;;;;16.00;100.00;100264.34;5095822;28;20239;-71
2021/07/05 03:25:17;;;;;;;16.27;7.90;;;;;;;16.02;100.00;100256.16;5077588;28;20214;-71
2021/07/05 03:27:43;;;;;;;13.97;8.53;;;;;;;16.11;100.00;100258.06;5077918;28;20190;-71
2021/07/05 03:30:09;;;;;;;11.80;8.57;;;;;;;16.14;100.00;100255.94;5095730;28;20186;-71
2021/07/05 03:32:35;;;;;;;14.00;9.60;;;;;;;16.29;100.00;100256.47;5077689;28;20182;-70
2021/07/05 03:35:01;;;;;;;12.33;9.20;;;;;;;16.32;100.00;100249.97;5077521;28;20189;-70
2021/07/05 03:37:26;;;;;;;19.43;9.87;;;;;;;16.30;100.00;100249.25;5095610;28;20638;-70
2021/07/05 03:39:51;;;;;;;13.23;9.17;;;;;;;16.37;100.00;100248.59;5077576;28;20189;-70
2021/07/05 03:42:17;;;;;;;13.40;9.70;;;;;;;16.37;100.00;100247.75;5095498;28;20512;-70
2021/07/05 03:44:42;;;;;;;15.17;9.23;;;;;;;16.32;100.00;100247.25;5077485;28;20198;-70
2021/07/05 03:47:07;;;;;;;15.00;9.30;;;;;;;16.35;100.00;100253.25;5077420;28;20304;-70
2021/07/05 03:49:33;;;;;;;11.10;8.27;;;;;;;16.45;99.91;100254.19;5095329;28;20576;-70
2021/07/05 03:51:58;;;;;;;12.20;8.20;;;;;;;16.40;100.00;100253.72;5096132;28;20206;-69
2021/07/05 03:54:23;;;;;;;16.80;9.13;;;;;;;16.43;100.00;100249.91;5095491;28;20194;-69
2021/07/05 03:56:49;;;;;;;13.00;8.03;;;;;;;16.70;99.33;100257.44;5094634;28;20224;-69
2021/07/05 03:59:15;;;;;;;15.73;8.80;;;;;;;16.64;99.48;100257.94;5077225;28;20502;-70
2021/07/05 04:01:40;;;;;;;10.50;7.90;;;;;;;16.52;99.92;100266.13;5060462;28;20745;-69
2021/07/05 04:04:06;;;;;;;16.50;8.77;;;;;;;16.49;100.00;100269.09;5095760;28;20256;-70
2021/07/05 04:06:32;;;;;;;13.10;8.33;;;;;;;16.51;100.00;100272.50;5077226;28;20176;-71
2021/07/05 04:08:58;;;;;;;14.43;7.67;;;;;;;16.69;99.14;100267.38;5077303;28;20637;-69
2021/07/05 04:11:24;;;;;;;11.50;7.90;;;;;;;16.65;98.87;100282.06;5095276;28;20177;-69
2021/07/05 04:13:49;;;;;;;10.27;7.53;;;;;;;16.58;99.25;100273.66;5077024;28;20545;-69
2021/07/05 04:16:15;;;;;;;13.27;7.83;;;;;;;16.60;98.46;100276.22;5076978;28;20276;-70
2021/07/05 04:18:40;;;;;;;11.70;7.70;;;;;;;16.80;97.71;100275.38;5077074;28;20170;-70
2021/07/05 04:21:05;;;;;;;9.63;8.37;;;;;;;16.65;98.31;100265.03;5077358;28;20247;-69
2021/07/05 04:23:30;;;;;;;17.57;9.23;;;;;;;16.51;99.85;100259.03;5077610;28;20224;-69
2021/07/05 04:25:56;;;;;;;11.57;8.20;;;;;;;16.67;100.00;100263.09;5129979;22;20229;-71
2021/07/05 04:28:21;;;;;;;11.23;8.60;;;;;;;16.74;99.28;100254.38;5097350;28;20193;-72
2021/07/05 04:30:48;;;;;;;14.60;8.63;;;;;;;16.83;98.01;100258.09;5080060;28;20309;-72
2021/07/05 04:33:13;;;;;;;11.63;8.90;;;;;;;16.95;97.94;100256.16;5115456;28;20181;-72
2021/07/05 04:35:38;;;;;;;14.40;8.30;;;;;;;17.10;97.15;100244.88;5115046;28;20588;-72
2021/07/05 04:38:04;;;;;;;11.27;8.00;;;;;;;17.13;96.93;100250.00;5115081;28;20170;-72
2021/07/05 04:40:32;;;;;;;19.40;8.20;;;;;;;17.27;96.53;100247.88;5096791;28;20190;-72
2021/07/05 04:42:58;;;;;;;13.27;7.87;;;;;;;17.26;97.21;100251.59;5115193;28;20176;-72
2021/07/05 04:45:28;;;;;;;12.37;8.80;;;;;;;17.21;97.85;100249.31;5096419;28;20276;-73
2021/07/05 04:47:54;;;;;;;11.73;8.70;;;;;;;17.21;98.12;100248.44;5096719;28;20201;-71
2021/07/05 04:50:19;;;;;;;16.53;9.37;;;;;;;17.17;97.50;100243.34;5096770;28;20230;-72
2021/07/05 04:52:45;;;;;;;17.43;9.17;;;;;;;17.47;96.05;100238.88;5115900;28;20178;-72
2021/07/05 04:55:12;;;;;;;12.37;8.23;;;;;;;17.64;94.23;100240.84;5096483;28;20268;-72
2021/07/05 04:57:39;;;;;;;20.57;8.47;;;;;;;17.63;95.01;100236.47;5096378;28;20189;-72
2021/07/05 05:00:10;;;;;;;17.57;8.40;;;;;;;17.76;93.39;100242.44;5096338;28;20170;-71
2021/07/05 05:02:36;;;;;;;13.90;7.97;;;;;;;17.79;93.85;100235.91;5096109;28;20205;-73
2021/07/05 05:05:03;;;;;;;15.53;8.33;;;;;;;17.86;93.21;100238.94;5096374;28;20189;-72
2021/07/05 05:07:29;;;;;;;13.03;8.30;;;;;;;17.97;93.31;100233.38;5114051;28;20615;-72
2021/07/05 05:10:00;;;;;;;11.70;8.83;;;;;;;17.93;93.62;100232.81;5114085;28;20169;-72
2021/07/05 05:12:25;;;;;;;16.77;8.77;;;;;;;17.95;93.81;100235.38;5114289;28;20168;-72
2021/07/05 05:14:51;;;;;;;18.37;8.07;;;;;;;18.04;92.62;100234.50;5114245;28;20288;-71
2021/07/05 05:17:16;;;;;;;19.30;7.67;;;;;;;18.13;94.05;100233.63;5095689;28;20180;-70
2021/07/05 05:19:41;;;;;;;18.90;7.60;;;;;;;18.35;90.72;100229.78;5095732;28;20189;-71
2021/07/05 05:22:08;;;;;;;22.57;8.10;;;;;;;18.31;91.13;100233.75;5114673;28;20223;-71
2021/07/05 05:24:33;;;;;;;14.33;7.73;;;;;;;18.56;89.72;100226.84;5113761;28;20174;-72
2021/07/05 05:26:58;;;;;;;22.43;8.80;;;;;;;18.33;91.18;100221.81;5095513;28;20244;-71
2021/07/05 05:29:24;;;;;;;17.77;8.33;;;;;;;18.44;91.75;100227.03;5095758;28;20184;-70
2021/07/05 05:31:49;;;;;;;14.33;7.50;;;;;;;18.65;88.77;100223.34;5113604;28;20181;-71
2021/07/05 05:34:14;;;;;;;14.47;7.77;;;;;;;18.65;91.11;100223.34;5113834;28;20541;-71
2021/07/05 05:36:40;;;;;;;18.27;7.83;;;;;;;18.96;87.96;100213.09;5113857;28;20211;-71
2021/07/05 05:39:05;;;;;;;14.63;6.70;;;;;;;19.02;87.98;100223.31;5095700;28;20177;-71
2021/07/05 05:41:30;;;;;;;15.83;6.97;;;;;;;19.17;87.23;100213.69;5114418;28;20177;-71
2021/07/05 05:44:00;;;;;;;12.77;6.70;;;;;;;19.43;85.13;100211.13;5095516;28;20541;-71
2021/07/05 05:46:29;;;;;;;11.50;6.73;;;;;;;19.64;84.23;100216.25;5113253;28;20323;-70
2021/07/05 05:48:54;;;;;;;12.10;6.80;;;;;;;19.61;84.39;100221.97;5095760;28;20220;-70
2021/07/05 05:51:20;;;;;;;13.23;6.40;;;;;;;19.74;83.52;100217.03;5095694;28;20637;-71
2021/07/05 05:53:45;;;;;;;13.90;6.67;;;;;;;19.80;83.34;100215.56;5095524;28;20545;-70
2021/07/05 05:56:11;;;;;;;8.83;6.20;;;;;;;20.25;81.90;100216.28;5095166;28;20676;-71
2021/07/05 05:58:39;;;;;;;10.47;6.50;;;;;;;20.43;81.04;100210.84;5113642;28;20177;-70
2021/07/05 06:01:05;;;;;;;8.17;6.20;;;;;;;20.44;79.82;100215.28;5095957;28;20170;-72
2021/07/05 06:03:31;;;;;;;11.00;6.63;;;;;;;20.72;78.96;100217.78;5095406;28;20165;-71
2021/07/05 06:05:56;;;;;;;17.10;6.43;;;;;;;20.76;77.90;100213.75;5094945;28;20227;-71
2021/07/05 06:08:21;;;;;;;10.27;5.73;;;;;;;21.18;76.05;100213.75;5095036;28;20693;-71
2021/07/05 06:10:47;;;;;;;6.93;6.00;;;;;;;21.28;76.46;100209.09;5095335;28;20177;-71
2021/07/05 06:13:12;;;;;;;11.67;6.40;;;;;;;21.22;76.42;100215.16;5095413;28;20173;-71
2021/07/05 06:15:37;;;;;;;13.07;6.60;;;;;;;21.33;75.63;100198.59;5078200;28;20204;-71
2021/07/05 06:18:03;;;;;;;6.43;5.70;;;;;;;21.46;75.19;100206.25;5095244;28;20180;-71
2021/07/05 06:20:28;;;;;;;12.23;5.80;;;;;;;21.10;76.81;100205.59;5098870;28;20173;-72
2021/07/05 06:22:55;;;;;;;12.47;6.63;;;;;;;21.05;77.69;100205.25;5100169;28;20196;-72
2021/07/05 06:25:22;;;;;;;10.53;5.80;;;;;;;21.04;77.27;100204.38;5117541;28;20277;-70
2021/07/05 06:27:47;;;;;;;7.57;5.23;;;;;;;21.17;76.63;100207.47;5099686;28;20193;-72
2021/07/05 06:30:13;;;;;;;11.67;5.80;;;;;;;21.37;75.52;100209.97;5117563;28;20212;-73
2021/07/05 06:32:39;;;;;;;8.27;5.73;;;;;;;21.53;74.30;100210.00;5099211;28;20173;-71
2021/07/05 06:35:05;;;;;;;8.83;5.97;;;;;;;21.74;73.81;100209.53;5098955;28;20676;-70
2021/07/05 06:37:30;;;;;;;9.70;5.97;;;;;;;21.85;71.85;100206.47;5117807;28;20192;-71
2021/07/05 06:39:55;;;;;;;10.60;5.80;;;;;;;21.96;72.12;100198.00;5099438;28;20180;-72
2021/07/05 06:42:21;;;;;;;13.87;5.23;;;;;;;22.14;71.25;100200.56;5122859;28;20178;-71
2021/07/05 06:44:46;;;;;;;11.80;6.20;;;;;;;22.02;70.40;100202.75;5099186;28;20190;-71
2021/07/05 06:47:11;;;;;;;6.93;5.67;;;;;;;22.39;69.26;100201.41;5117060;28;20213;-71
2021/07/05 06:49:37;;;;;;;9.43;6.30;;;;;;;22.43;66.01;100200.03;5117442;28;20205;-70
2021/07/05 06:52:03;;;;;;;9.43;6.23;;;;;;;22.40;65.99;100205.81;5117432;28;20264;-72
2021/07/05 06:54:28;;;;;;;12.40;5.67;;;;;;;22.51;65.40;100202.72;5099499;28;20174;-70
2021/07/05 06:56:53;;;;;;;8.87;6.07;;;;;;;23.07;63.59;100203.63;5099359;28;20264;-71
2021/07/05 06:59:18;;;;;;;11.60;5.50;;;;;;;23.35;62.27;100188.47;5127772;28;20178;-73
2021/07/05 07:01:45;;;;;;;10.40;6.20;;;;;;;23.44;62.76;100197.47;5118488;28;20222;-72
2021/07/05 07:04:10;;;;;;;9.47;6.07;;;;;;;23.70;61.64;100200.72;5088686;28;20283;-72
2021/07/05 07:06:35;;;;;;;13.53;6.27;;;;;;;23.65;60.12;100196.84;5117072;28;20707;-72
2021/07/05 07:09:01;;;;;;;9.03;6.07;;;;;;;23.65;60.20;100192.22;5116795;28;20202;-71
2021/07/05 07:11:26;;;;;;;9.33;6.63;;;;;;;23.44;59.91;100191.19;5098693;28;20235;-72
2021/07/05 07:13:51;;;;;;;8.13;6.20;;;;;;;23.57;60.33;100189.56;5117041;28;20208;-70
2021/07/05 07:16:19;;;;;;;11.03;6.10;;;;;;;23.57;60.11;100188.72;5098761;28;20694;-71
2021/07/05 07:18:57;;;;;;;9.87;6.37;;;;;;;23.24;61.11;100191.59;5116944;28;20530;-72
2021/07/05 07:21:23;;;;;;;13.73;6.30;;;;;;;23.26;61.64;100185.97;5117005;28;20154;-72
2021/07/05 07:23:48;;;;;;;7.03;6.13;;;;;;;23.58;59.96;100195.88;5117792;28;20219;-71
2021/07/05 07:26:14;;;;;;;8.27;5.73;;;;;;;23.51;58.28;100190.28;5098794;28;20213;-72
2021/07/05 07:28:39;;;;;;;7.90;6.03;;;;;;;23.62;58.31;100198.06;5099392;28;20204;-72
2021/07/05 07:31:04;;;;;;;7.67;6.00;;;;;;;24.06;58.75;100189.19;5098259;28;20174;-71
2021/07/05 07:33:30;;;;;;;9.53;5.77;;;;;;;24.28;57.66;100182.88;5116801;28;20564;-71
2021/07/05 07:35:57;;;;;;;10.57;5.57;;;;;;;24.46;56.15;100189.84;5116162;28;20193;-71
2021/07/05 07:38:23;;;;;;;9.83;5.10;;;;;;;24.52;56.97;100189.13;5098374;28;20169;-71
2021/07/05 07:40:49;;;;;;;13.87;5.70;;;;;;;24.13;58.03;100189.28;5097913;28;20169;-71
2021/07/05 07:43:14;;;;;;;8.63;6.30;;;;;;;23.01;57.68;100188.81;5097906;28;20169;-72
2021/07/05 07:45:39;;;;;;;9.77;6.23;;;;;;;23.51;56.96;100184.81;5098011;28;20677;-71
2021/07/05 07:48:05;;;;;;;7.80;5.80;;;;;;;23.58;58.06;100191.28;5097587;28;20673;-71
2021/07/05 07:50:30;;;;;;;6.17;5.60;;;;;;;23.55;57.77;100186.19;5115716;28;20173;-71
2021/07/05 07:52:57;;;;;;;7.17;5.83;;;;;;;23.58;57.94;100187.69;5097880;28;20209;-71
2021/07/05 07:55:22;;;;;;;6.73;5.20;;;;;;;24.04;58.46;100195.84;5116115;28;20186;-71
2021/07/05 07:57:48;;;;;;;7.83;6.10;;;;;;;24.55;55.23;100202.41;5080557;28;20176;-71
2021/07/05 08:00:15;;;;;;;6.97;6.07;;;;;;;24.49;55.23;100203.97;5115713;28;20166;-71
2021/07/05 08:02:40;;;;;;;7.47;5.70;;;;;;;24.84;54.73;100196.09;5097639;28;20584;-71
2021/07/05 08:05:06;;;;;;;6.67;5.67;;;;;;;24.86;54.55;100199.47;5098020;28;20189;-73
2021/07/05 08:07:32;;;;;;;9.07;5.97;;;;;;;24.74;54.75;100203.72;5097381;28;20202;-72
2021/07/05 08:09:57;;;;;;;7.63;5.97;;;;;;;24.80;54.57;100197.50;5115672;28;20173;-72
2021/07/05 08:12:23;;;;;;;8.47;6.47;;;;;;;24.88;54.22;100189.22;5115712;28;20557;-72
2021/07/05 08:14:48;;;;;;;9.60;6.70;;;;;;;24.15;56.76;100190.81;5096814;28;20189;-71
2021/07/05 08:17:14;;;;;;;8.40;5.87;;;;;;;24.82;55.32;100189.97;5116018;28;20180;-72
2021/07/05 08:19:39;;;;;;;7.87;6.13;;;;;;;24.81;56.13;100188.28;5115608;28;20197;-72
2021/07/05 08:22:05;;;;;;;9.83;7.03;;;;;;;24.34;56.94;100191.34;5115785;28;20174;-72
2021/07/05 08:24:30;;;;;;;8.43;6.13;;;;;;;24.67;55.84;100191.88;5096894;28;20193;-71
2021/07/05 08:26:55;;;;;;;7.27;5.80;;;;;;;25.10;54.31;100188.28;5115500;28;20608;-72
2021/07/05 08:29:21;;;;;;;6.57;5.57;;;;;;;25.17;54.76;100197.41;5097000;28;20177;-72
2021/07/05 08:31:46;;;;;;;6.10;5.50;;;;;;;25.65;52.20;100186.00;5115276;28;20170;-72
2021/07/05 08:34:11;;;;;;;8.37;6.30;;;;;;;25.12;54.41;100188.09;5097772;28;20180;-73
2021/07/05 08:36:40;;;;;;;6.63;5.90;;;;;;;25.36;53.41;100192.41;5115268;28;20197;-72
2021/07/05 08:39:05;;;;;;;7.77;6.30;;;;;;;25.47;53.46;100183.69;5097091;28;20173;-72
2021/07/05 08:41:30;;;;;;;11.03;6.33;;;;;;;25.52;54.10;100181.22;5096624;28;20181;-71
2021/07/05 08:43:56;;;;;;;7.10;6.40;;;;;;;25.22;55.40;100194.09;5097621;28;20166;-72
2021/07/05 08:46:23;;;;;;;7.53;6.80;;;;;;;25.41;54.30;100196.25;5115646;28;20190;-72
2021/07/05 08:48:49;;;;;;;7.57;6.77;;;;;;;25.01;55.06;100189.44;5097320;28;20197;-72
2021/07/05 08:51:20;;;;;;;8.37;7.03;;;;;;;24.61;56.64;100186.13;5100970;28;20173;-72
2021/07/05 08:53:47;;;;;;;7.77;6.90;;;;;;;24.81;56.54;100186.41;5101026;28;20195;-73
2021/07/05 08:56:13;;;;;;;7.70;6.90;;;;;;;24.61;56.44;100186.13;5115982;28;20217;-71
2021/07/05 08:58:40;;;;;;;11.63;8.13;;;;;;;23.88;58.47;100184.06;5119536;28;20173;-72
2021/07/05 09:01:07;;;;;;;8.23;7.37;;;;;;;24.54;56.53;100193.38;5115851;28;20176;-72
2021/07/05 09:03:32;;;;;;;9.77;7.07;;;;;;;24.67;55.98;100189.13;5097009;28;20533;-72
2021/07/05 09:06:18;;;;;;;8.43;7.47;;;;;;;25.09;55.84;100183.88;5115633;28;20223;-71
2021/07/05 09:08:57;;;;;;;8.67;7.57;;;;;;;25.10;54.92;100182.84;5098647;28;20193;-71
2021/07/05 09:11:35;;;;;;;12.20;7.27;;;;;;;24.72;56.25;100192.16;5100317;28;20161;-71
2021/07/05 09:14:01;;;;;;;8.00;7.20;;;;;;;25.13;55.06;100190.63;5114796;28;20236;-71
2021/07/05 09:16:34;;;;;;;8.30;7.40;;;;;;;25.09;55.66;100186.59;5096400;28;20669;-72
2021/07/05 09:19:01;;;;;;;12.17;8.13;;;;;;;25.30;53.81;100188.56;5114347;28;20188;-71
2021/07/05 09:21:32;;;;;;;8.40;7.60;;;;;;;24.78;55.22;100189.50;5114236;28;20176;-69
2021/07/05 09:24:06;;;;;;;9.60;7.80;;;;;;;24.93;53.83;100194.97;5096110;28;20173;-70
2021/07/05 09:26:43;;;;;;;8.27;7.53;;;;;;;24.73;53.38;100191.09;5114354;28;20271;-70
2021/07/05 09:29:14;;;;;;;9.13;7.23;;;;;;;24.72;54.63;100190.25;5114110;28;20212;-72
2021/07/05 09:31:45;;;;;;;8.03;7.23;;;;;;;25.02;55.44;100185.69;5114232;28;20280;-72
2021/07/05 09:34:24;;;;;;;9.90;7.83;;;;;;;25.43;55.00;100193.31;5114105;28;20499;-72
2021/07/05 09:36:52;;;;;;;10.87;7.77;;;;;;;24.77;56.83;100198.72;5113988;28;20531;-72
2021/07/05 09:39:21;;;;;;;10.93;8.57;;;;;;;25.60;53.00;100192.03;5096353;28;20247;-72
2021/07/05 09:41:47;;;;;;;10.83;9.00;;;;;;;25.64;52.67;100193.31;5096017;28;20165;-72
2021/07/05 09:44:19;;;;;;;11.00;8.77;;;;;;;25.70;52.91;100187.13;5113866;28;20184;-71
2021/07/05 09:46:54;;;;;;;9.10;8.10;;;;;;;25.69;53.48;100198.25;5113912;28;20185;-71
2021/07/05 09:49:33;;;;;;;11.20;8.13;;;;;;;25.92;52.77;100206.25;5095706;28;20528;-70
2021/07/05 09:52:09;;;;;;;9.07;8.17;;;;;;;25.58;53.09;100191.38;5113701;28;20196;-71
2021/07/05 09:54:35;;;;;;;8.23;7.43;;;;;;;25.41;54.01;100196.25;5095085;28;20157;-71
2021/07/05 09:57:02;;;;;;;7.80;7.03;;;;;;;25.67;53.54;100197.63;5095860;28;20269;-72
2021/07/05 09:59:29;;;;;;;9.07;6.57;;;;;;;26.10;49.55;100195.72;5095568;28;20641;-70
2021/07/05 10:01:56;;;;;;;14.20;6.10;;;;;;;25.90;48.05;100216.53;5096050;28;20162;-73
2021/07/05 10:04:27;;;;;;;6.83;6.13;;;;;;;25.65;49.27;100210.59;5113446;28;20226;-73
2021/07/05 10:06:57;;;;;;;8.07;6.07;;;;;;;25.70;49.70;100206.25;5113886;28;20195;-73
2021/07/05 10:09:43;;;;;;;7.80;6.57;;;;;;;25.52;50.14;100205.81;5095075;28;20165;-72
2021/07/05 10:12:21;;;;;;;10.13;7.63;;;;;;;25.62;47.68;100209.06;5113300;28;20170;-72
2021/07/05 10:15:03;;;;;;;7.77;5.53;;;;;;;25.72;48.48;100206.91;5113330;28;20193;-71
2021/07/05 10:17:32;;;;;;;6.47;5.40;;;;;;;25.83;47.89;100214.59;5095368;28;20233;-71
2021/07/05 10:19:57;;;;;;;9.77;5.97;;;;;;;25.98;47.13;100213.66;5115235;28;20173;-72
2021/07/05 10:22:23;;;;;;;6.13;5.53;;;;;;;26.32;46.82;100215.66;5098377;28;20175;-72
2021/07/05 10:27:16;;;;;;;5.83;4.57;;;;;;;26.76;46.85;100208.03;5072118;28;20231;-70
2021/07/05 10:29:44;;;;;;;5.13;4.63;;;;;;;26.46;45.34;100228.44;5054691;28;20186;-71
2021/07/05 10:32:10;;;;;;;7.60;4.37;;;;;;;25.79;47.48;100212.44;5038019;28;20175;-71
2021/07/05 10:34:39;;;;;;;7.43;5.63;;;;;;;26.01;46.89;100207.81;5054983;28;20186;-72
2021/07/05 10:37:12;;;;;;;7.77;4.17;;;;;;;25.70;46.13;100206.25;5072470;28;20195;-71
2021/07/05 10:39:40;;;;;;;7.17;6.27;;;;;;;25.94;46.89;100209.63;5038176;28;20171;-71
2021/07/05 10:42:27;;;;;;;5.47;4.97;;;;;;;26.13;47.23;100195.31;5054819;28;20224;-72
2021/07/05 10:44:53;;;;;;;6.03;5.00;;;;;;;25.83;47.93;100206.38;5054491;28;20175;-72
2021/07/05 10:47:49;;;;;;;4.27;3.87;;;;;;;25.24;48.67;100201.06;5072468;28;20190;-71
2021/07/05 10:50:33;;;;;;;6.93;4.00;;;;;;;25.97;48.26;100190.94;5072597;28;20164;-72
2021/07/05 10:52:59;;;;;;;6.50;5.80;;;;;;;25.83;47.90;100195.47;5072531;28;20250;-72
2021/07/05 10:55:42;;;;;;;8.77;4.50;;;;;;;25.51;48.37;100223.25;5054514;28;20270;-72
2021/07/05 10:58:16;;;;;;;9.43;4.43;;;;;;;25.69;48.98;100201.00;5037949;28;20261;-72
2021/07/05 11:00:43;;;;;;;4.90;4.30;;;;;;;25.55;48.27;100205.41;5072367;28;20175;-72
2021/07/05 11:03:08;;;;;;;4.13;3.73;;;;;;;25.23;49.12;100204.84;5072578;28;20296;-72
2021/07/05 11:05:45;;;;;;;5.17;4.67;;;;;;;25.20;49.63;100207.09;5056396;28;20277;-72
2021/07/05 11:08:23;;;;;;;8.13;4.23;;;;;;;25.67;49.14;100206.66;5058127;28;20190;-72
2021/07/05 11:10:50;;;;;;;3.87;3.57;;;;;;;25.72;49.15;100206.91;5058540;28;20190;-71
2021/07/05 11:13:18;;;;;;;4.97;4.47;;;;;;;26.06;47.98;100211.66;5058521;28;20177;-72
2021/07/05 11:15:54;;;;;;;3.63;3.33;;;;;;;25.56;49.16;100207.13;5076131;28;20226;-72
2021/07/05 11:18:38;;;;;;;5.90;3.77;;;;;;;25.31;50.39;100219.44;5076040;28;20504;-72